Time;durP1;ratioP1;P1;durP2;ratioP2;P2;SDS_P1;SDS_P2;PMS_P1;PMS_P2;Temp;Humidity;BMP_temperature;BMP_pressure;BME280_temperature;BME280_humidity;BME280_pressure;Samples;Min_cycle;Max_cycle;Signal;HPM_P1;HPM_P2
2021/05/02 00:00:26;;;;;;;13.30;12.00;;;8.40;99.90;;;;;;5074674;28;20428;-67
2021/05/02 00:02:53;;;;;;;13.60;11.93;;;8.40;99.90;;;;;;5090186;28;20463;-67
2021/05/02 00:05:20;;;;;;;13.50;12.20;;;8.30;99.90;;;;;;5094838;28;20475;-67
2021/05/02 00:07:46;;;;;;;11.87;10.80;;;8.30;99.90;;;;;;5095059;28;20460;-67
2021/05/02 00:10:13;;;;;;;13.27;12.00;;;8.30;99.90;;;;;;5094819;28;20392;-67
2021/05/02 00:12:39;;;;;;;13.60;12.30;;;8.20;99.90;;;;;;5095255;28;20765;-67
2021/05/02 00:15:08;;;;;;;13.60;12.30;;;8.20;99.90;;;;;;5093771;28;20403;-67
2021/05/02 00:17:36;;;;;;;15.10;13.33;;;8.10;99.90;;;;;;5094723;28;20405;-67
2021/05/02 00:20:04;;;;;;;13.70;12.50;;;8.00;99.90;;;;;;5093420;28;20889;-67
2021/05/02 00:22:31;;;;;;;15.17;13.67;;;8.00;99.90;;;;;;5094541;28;20886;-67
2021/05/02 00:24:57;;;;;;;14.83;13.33;;;8.00;99.90;;;;;;5093598;28;20395;-67
2021/05/02 00:27:26;;;;;;;13.77;12.43;;;7.90;99.90;;;;;;5094943;28;20387;-67
2021/05/02 00:29:52;;;;;;;14.40;13.00;;;7.90;99.90;;;;;;5085601;28;20404;-67
2021/05/02 00:32:17;;;;;;;13.27;11.97;;;7.80;99.90;;;;;;5074757;28;20416;-67
2021/05/02 00:34:43;;;;;;;14.60;12.67;;;7.80;99.90;;;;;;5074159;28;20519;-67
2021/05/02 00:37:09;;;;;;;14.80;13.40;;;7.70;99.90;;;;;;5074097;28;20187;-67
2021/05/02 00:39:35;;;;;;;17.43;13.70;;;7.70;99.90;;;;;;5073737;28;20166;-67
2021/05/02 00:42:06;;;;;;;15.27;13.77;;;7.70;99.90;;;;;;5074325;28;20477;-67
2021/05/02 00:47:23;;;;;;;17.23;14.33;;;7.60;99.90;;;;;;5151992;27;21124;-65
2021/05/02 00:49:57;;;;;;;17.07;15.37;;;7.50;99.90;;;;;;5151928;27;20976;-65
2021/05/02 00:52:40;;;;;;;15.10;13.70;;;7.50;99.90;;;;;;5151918;27;20381;-65
2021/05/02 01:00:30;;;;;;;16.50;15.07;;;7.30;99.90;;;;;;5131235;27;20509;-67
2021/05/02 01:02:57;;;;;;;16.40;14.80;;;7.30;99.90;;;;;;5113716;28;20759;-67
2021/05/02 01:05:24;;;;;;;21.20;16.70;;;7.30;99.90;;;;;;5110936;28;20420;-67
2021/05/02 01:07:56;;;;;;;15.90;14.40;;;7.20;99.90;;;;;;5110612;28;20400;-67
2021/05/02 01:10:22;;;;;;;17.23;15.63;;;7.20;99.90;;;;;;5111091;28;20386;-67
2021/05/02 01:12:51;;;;;;;18.40;16.60;;;7.20;99.90;;;;;;5110518;28;20397;-67
2021/05/02 01:15:23;;;;;;;17.83;16.10;;;7.10;99.90;;;;;;5110625;28;20413;-67
2021/05/02 01:17:54;;;;;;;20.20;17.90;;;7.10;99.90;;;;;;5110587;28;20904;-67
2021/05/02 01:20:20;;;;;;;17.80;16.10;;;7.10;99.90;;;;;;5110248;28;20437;-67
2021/05/02 01:22:46;;;;;;;20.17;18.37;;;7.00;99.90;;;;;;5110419;28;20394;-67
2021/05/02 01:25:12;;;;;;;21.17;18.73;;;7.10;99.90;;;;;;5110768;28;20910;-67
2021/05/02 01:27:38;;;;;;;19.90;17.83;;;7.00;99.90;;;;;;5110401;28;20619;-67
2021/05/02 01:30:09;;;;;;;20.70;18.00;;;7.10;99.90;;;;;;5110266;28;20389;-67
2021/05/02 01:32:35;;;;;;;21.40;18.47;;;7.10;99.90;;;;;;5094156;28;20464;-67
2021/05/02 01:35:06;;;;;;;19.90;18.00;;;7.20;99.90;;;;;;5089790;28;20393;-67
2021/05/02 01:37:32;;;;;;;20.03;18.20;;;7.20;99.90;;;;;;5089705;28;20453;-67
2021/05/02 01:39:59;;;;;;;18.83;17.00;;;7.30;99.90;;;;;;5091890;28;20449;-67
2021/05/02 01:42:24;;;;;;;21.33;19.23;;;7.40;99.90;;;;;;5110042;28;20472;-67
2021/05/02 01:44:50;;;;;;;20.03;17.90;;;7.40;99.90;;;;;;5110452;28;20926;-67
2021/05/02 01:47:17;;;;;;;21.97;19.77;;;7.50;99.90;;;;;;5110068;28;20165;-67
2021/05/02 01:49:52;;;;;;;20.90;18.67;;;7.60;99.90;;;;;;5110023;28;20160;-67
2021/05/02 01:52:18;;;;;;;21.23;18.93;;;7.60;99.90;;;;;;5109939;28;20421;-67
2021/05/02 01:54:45;;;;;;;21.20;19.10;;;7.60;99.90;;;;;;5110418;28;20485;-68
2021/05/02 01:57:16;;;;;;;20.53;18.63;;;7.70;99.90;;;;;;5109666;28;20446;-67
2021/05/02 01:59:43;;;;;;;19.60;17.57;;;7.70;99.90;;;;;;5109482;28;20469;-67
2021/05/02 02:02:09;;;;;;;19.60;17.70;;;7.80;99.90;;;;;;5109609;28;20914;-67
2021/05/02 02:04:40;;;;;;;18.63;16.67;;;7.80;99.90;;;;;;5109802;28;20775;-67
2021/05/02 02:07:06;;;;;;;18.67;16.83;;;7.80;99.90;;;;;;5109866;28;20441;-67
2021/05/02 02:09:32;;;;;;;17.13;15.53;;;7.80;99.90;;;;;;5109776;28;20449;-67
2021/05/02 02:11:59;;;;;;;18.13;16.33;;;7.90;99.90;;;;;;5095159;28;20529;-67
2021/05/02 02:14:26;;;;;;;16.40;14.90;;;7.90;99.90;;;;;;5095976;28;20773;-67
2021/05/02 02:16:52;;;;;;;19.73;17.93;;;7.90;99.90;;;;;;5095628;28;20395;-67
2021/05/02 02:19:18;;;;;;;18.57;16.67;;;7.90;99.90;;;;;;5095740;28;20450;-67
2021/05/02 02:21:47;;;;;;;18.60;16.80;;;8.00;99.90;;;;;;5096000;28;20395;-68
2021/05/02 02:24:12;;;;;;;19.17;16.97;;;7.90;99.90;;;;;;5096005;28;20152;-67
2021/05/02 02:26:50;;;;;;;16.20;14.60;;;8.00;99.90;;;;;;5095621;28;20447;-67
2021/05/02 02:29:15;;;;;;;19.47;15.73;;;8.00;99.90;;;;;;5095868;28;20910;-68
2021/05/02 02:31:44;;;;;;;17.80;16.00;;;8.00;99.90;;;;;;5095440;28;20411;-67
2021/05/02 02:34:12;;;;;;;17.80;15.90;;;8.10;99.90;;;;;;5095547;28;20308;-67
2021/05/02 02:36:38;;;;;;;18.53;16.83;;;8.00;99.90;;;;;;5095906;28;20429;-68
2021/05/02 02:39:05;;;;;;;17.90;15.77;;;8.00;99.90;;;;;;5095768;28;20958;-67
2021/05/02 02:41:35;;;;;;;16.70;15.00;;;8.10;99.90;;;;;;5095307;28;20426;-68
2021/05/02 02:44:01;;;;;;;18.10;16.30;;;8.00;99.90;;;;;;5095312;28;20419;-67
2021/05/02 02:46:29;;;;;;;17.53;15.93;;;8.00;99.90;;;;;;5095360;28;20901;-67
2021/05/02 02:48:59;;;;;;;18.10;16.30;;;8.00;99.90;;;;;;5095099;28;20429;-67
2021/05/02 02:51:26;;;;;;;17.83;16.13;;;8.00;99.90;;;;;;5095737;28;20391;-67
2021/05/02 02:53:55;;;;;;;13.60;12.20;;;8.00;99.90;;;;;;5095284;28;20922;-68
2021/05/02 02:56:21;;;;;;;14.83;13.30;;;8.00;99.90;;;;;;5095714;28;20568;-68
2021/05/02 03:01:41;;;;;;;15.50;14.00;;;8.00;99.90;;;;;;5110783;27;20504;-67
2021/05/02 03:04:10;;;;;;;15.60;12.33;;;8.00;99.90;;;;;;5110776;28;20439;-68
2021/05/02 03:06:36;;;;;;;13.10;11.70;;;8.00;99.90;;;;;;5095151;28;20441;-67
2021/05/02 03:09:04;;;;;;;12.00;10.80;;;8.00;99.90;;;;;;5091171;28;20388;-67
2021/05/02 03:11:29;;;;;;;14.10;11.40;;;8.00;99.90;;;;;;5090525;28;20375;-67
2021/05/02 03:13:56;;;;;;;11.93;10.83;;;8.00;99.90;;;;;;5090181;28;20386;-67
2021/05/02 03:16:25;;;;;;;11.53;10.40;;;8.00;99.90;;;;;;5089994;28;20238;-67
2021/05/02 03:21:37;;;;;;;12.10;9.63;;;8.00;99.90;;;;;;5110791;27;20508;-66
2021/05/02 03:24:07;;;;;;;11.60;9.50;;;7.90;99.90;;;;;;5093565;28;20979;-66
2021/05/02 03:26:34;;;;;;;11.07;9.80;;;8.00;99.90;;;;;;5090292;28;20755;-66
2021/05/02 03:29:03;;;;;;;11.73;10.53;;;7.90;99.90;;;;;;5090255;28;20444;-66
2021/05/02 03:31:31;;;;;;;12.70;10.07;;;7.90;99.90;;;;;;5090508;28;20949;-66
2021/05/02 03:34:01;;;;;;;11.83;10.50;;;7.90;99.90;;;;;;5092495;28;20466;-66
2021/05/02 03:36:44;;;;;;;12.80;11.50;;;7.90;99.90;;;;;;5110581;28;20443;-66
2021/05/02 03:39:10;;;;;;;11.97;10.80;;;7.90;99.90;;;;;;5108261;28;20398;-66
2021/05/02 03:41:36;;;;;;;15.87;14.37;;;7.90;99.90;;;;;;5090136;28;20444;-66
2021/05/02 03:44:03;;;;;;;19.60;15.23;;;7.90;99.90;;;;;;5090095;28;20388;-66
2021/05/02 03:46:28;;;;;;;20.67;17.40;;;7.90;99.90;;;;;;5089904;28;20491;-66
2021/05/02 03:51:34;;;;;;;22.80;20.60;;;7.90;99.90;;;;;;5131575;27;20922;-67
2021/05/02 03:54:00;;;;;;;23.50;21.00;;;7.80;99.90;;;;;;5131669;27;20982;-67
2021/05/02 03:56:43;;;;;;;23.03;20.63;;;7.70;99.90;;;;;;5126670;28;20484;-67
2021/05/02 04:01:55;;;;;;;23.20;20.73;;;7.70;99.90;;;;;;5090356;28;20513;-68
2021/05/02 04:04:23;;;;;;;26.50;23.60;;;7.70;99.90;;;;;;5090802;28;20398;-65
2021/05/02 04:06:49;;;;;;;26.97;24.07;;;7.70;99.90;;;;;;5091547;28;20384;-67
2021/05/02 04:09:15;;;;;;;27.40;24.50;;;7.70;99.90;;;;;;5090624;28;20385;-68
2021/05/02 04:11:42;;;;;;;26.37;23.67;;;7.70;99.90;;;;;;5090328;28;20188;-68
2021/05/02 04:14:10;;;;;;;31.67;26.80;;;7.70;99.90;;;;;;5078601;28;20415;-66
2021/05/02 04:16:36;;;;;;;28.77;25.77;;;7.70;99.90;;;;;;5070263;28;20423;-68
2021/05/02 04:19:03;;;;;;;28.60;25.67;;;7.70;99.90;;;;;;5070147;28;20898;-68
2021/05/02 04:21:29;;;;;;;28.17;25.10;;;7.70;99.90;;;;;;5070683;28;20443;-66
2021/05/02 04:23:55;;;;;;;27.60;24.83;;;7.70;99.90;;;;;;5069967;28;20397;-66
2021/05/02 04:26:21;;;;;;;28.53;24.63;;;7.70;99.90;;;;;;5069830;28;20270;-66
2021/05/02 04:28:47;;;;;;;25.80;23.20;;;7.70;99.90;;;;;;5069675;28;20159;-66
2021/05/02 04:31:12;;;;;;;26.37;23.43;;;7.70;99.90;;;;;;5068830;28;20413;-66
2021/05/02 04:33:38;;;;;;;30.37;24.47;;;7.70;99.90;;;;;;5069560;28;20504;-66
2021/05/02 04:36:04;;;;;;;26.10;23.30;;;7.70;99.90;;;;;;5091208;28;20168;-66
2021/05/02 04:38:30;;;;;;;26.40;23.60;;;7.70;99.90;;;;;;5089767;28;20194;-66
2021/05/02 04:40:56;;;;;;;29.10;26.10;;;7.70;99.90;;;;;;5089580;28;20535;-66
2021/05/02 04:43:22;;;;;;;25.47;22.97;;;7.70;99.90;;;;;;5089883;28;20509;-66
2021/05/02 04:45:47;;;;;;;26.90;24.07;;;7.70;99.90;;;;;;5089756;28;20931;-66
2021/05/02 04:48:13;;;;;;;26.10;23.07;;;7.70;99.90;;;;;;5066957;28;20179;-66
2021/05/02 04:50:39;;;;;;;27.70;24.57;;;7.60;99.90;;;;;;5050824;28;20642;-67
2021/05/02 04:53:05;;;;;;;27.57;24.77;;;7.60;99.90;;;;;;5049196;28;20265;-66
2021/05/02 04:55:30;;;;;;;28.40;23.90;;;7.60;99.90;;;;;;5049350;28;20196;-66
2021/05/02 04:57:57;;;;;;;26.57;23.73;;;7.60;99.90;;;;;;5049333;28;20167;-67
2021/05/02 05:00:24;;;;;;;30.10;27.00;;;7.60;99.90;;;;;;5049075;28;20228;-66
2021/05/02 05:02:51;;;;;;;29.60;26.50;;;7.50;99.90;;;;;;5049606;28;20442;-67
2021/05/02 05:05:16;;;;;;;32.10;26.83;;;7.50;99.90;;;;;;5058945;28;20411;-67
2021/05/02 05:07:42;;;;;;;30.70;27.07;;;7.60;99.90;;;;;;5049213;28;20402;-66
2021/05/02 05:10:08;;;;;;;31.20;28.13;;;7.60;99.90;;;;;;5049146;28;20541;-66
2021/05/02 05:12:37;;;;;;;27.70;24.87;;;7.60;99.90;;;;;;5039018;28;20188;-66
2021/05/02 05:15:04;;;;;;;26.97;24.10;;;7.60;99.90;;;;;;5036124;28;20416;-66
2021/05/02 05:17:29;;;;;;;26.50;23.57;;;7.60;99.90;;;;;;5036243;28;20397;-66
2021/05/02 05:19:55;;;;;;;27.27;24.50;;;7.70;99.90;;;;;;5036663;28;20820;-66
2021/05/02 05:22:21;;;;;;;29.50;24.70;;;7.70;99.90;;;;;;5036336;28;20600;-66
2021/05/02 05:24:47;;;;;;;24.80;22.23;;;7.80;99.90;;;;;;5035466;28;20538;-66
2021/05/02 05:27:12;;;;;;;28.83;23.37;;;7.80;99.90;;;;;;5035826;28;20411;-66
2021/05/02 05:29:38;;;;;;;25.43;22.93;;;7.70;99.90;;;;;;5035667;28;20166;-66
2021/05/02 05:32:04;;;;;;;25.83;23.23;;;7.80;99.90;;;;;;5035642;28;20190;-67
2021/05/02 05:34:31;;;;;;;29.60;24.57;;;7.80;99.90;;;;;;5042798;28;20167;-66
2021/05/02 05:36:56;;;;;;;27.80;24.80;;;7.80;99.90;;;;;;5055345;28;20151;-67
2021/05/02 05:39:22;;;;;;;27.40;24.30;;;7.80;99.90;;;;;;5042855;28;20414;-66
2021/05/02 05:41:47;;;;;;;29.73;26.17;;;7.80;99.90;;;;;;5035302;28;20448;-66
2021/05/02 05:44:13;;;;;;;27.57;24.60;;;7.80;99.90;;;;;;5035220;28;20564;-66
2021/05/02 05:46:39;;;;;;;27.70;24.73;;;7.80;99.90;;;;;;5035442;28;20156;-67
2021/05/02 05:49:04;;;;;;;27.37;24.47;;;7.80;99.90;;;;;;5036239;28;20163;-66
2021/05/02 05:51:30;;;;;;;25.60;22.83;;;7.80;99.90;;;;;;5035175;28;20217;-66
2021/05/02 05:53:55;;;;;;;23.27;20.87;;;7.80;99.90;;;;;;5035066;28;20170;-66
2021/05/02 05:56:21;;;;;;;25.00;22.37;;;7.80;99.90;;;;;;5035774;28;20182;-66
2021/05/02 05:58:46;;;;;;;24.13;21.60;;;7.70;99.90;;;;;;5034975;28;20264;-66
2021/05/02 06:01:12;;;;;;;24.70;21.83;;;7.70;99.90;;;;;;5035043;28;20206;-67
2021/05/02 06:03:37;;;;;;;22.70;20.30;;;7.70;99.90;;;;;;5035664;28;20174;-66
2021/05/02 06:06:03;;;;;;;21.93;19.60;;;7.70;99.90;;;;;;5048154;28;20184;-66
2021/05/02 06:08:28;;;;;;;23.37;21.10;;;7.70;99.90;;;;;;5054844;28;20158;-66
2021/05/02 06:10:54;;;;;;;22.30;20.10;;;7.80;99.90;;;;;;5054681;28;20642;-67
2021/05/02 06:13:19;;;;;;;21.10;19.10;;;7.80;99.90;;;;;;5042710;28;20182;-66
2021/05/02 06:15:45;;;;;;;21.50;19.37;;;7.80;99.90;;;;;;5035018;28;20163;-67
2021/05/02 06:18:12;;;;;;;23.80;16.97;;;7.80;99.90;;;;;;5035628;28;20183;-67
2021/05/02 06:20:37;;;;;;;20.30;18.30;;;7.80;99.90;;;;;;5034478;28;20469;-66
2021/05/02 06:23:03;;;;;;;17.00;15.20;;;7.90;99.90;;;;;;5033835;28;20391;-66
2021/05/02 06:25:29;;;;;;;19.07;17.00;;;7.90;99.90;;;;;;5034434;28;20590;-66
2021/05/02 06:27:56;;;;;;;19.17;16.67;;;7.90;99.90;;;;;;5034458;28;20154;-67
2021/05/02 06:30:23;;;;;;;21.13;15.80;;;7.90;99.90;;;;;;5035479;28;20178;-67
2021/05/02 06:32:49;;;;;;;15.37;13.63;;;7.90;99.90;;;;;;5035244;28;20394;-66
2021/05/02 06:35:14;;;;;;;15.47;13.90;;;8.00;99.90;;;;;;5034302;28;20806;-67
2021/05/02 06:37:40;;;;;;;16.93;13.40;;;8.00;99.90;;;;;;5053791;28;20165;-66
2021/05/02 06:40:06;;;;;;;15.43;13.33;;;8.00;99.90;;;;;;5054264;28;20185;-66
2021/05/02 06:42:32;;;;;;;14.70;12.67;;;8.10;99.90;;;;;;5054137;28;20162;-67
2021/05/02 06:44:57;;;;;;;13.80;12.40;;;8.20;99.90;;;;;;5054564;28;20392;-67
2021/05/02 06:47:23;;;;;;;16.07;12.50;;;8.20;99.90;;;;;;5042607;28;20639;-67
2021/05/02 06:49:49;;;;;;;15.53;11.73;;;8.20;99.90;;;;;;5033962;28;20613;-67
2021/05/02 06:52:14;;;;;;;12.80;11.10;;;8.30;99.90;;;;;;5034001;28;20155;-66
2021/05/02 06:54:40;;;;;;;13.07;9.73;;;8.40;99.90;;;;;;5034098;28;20615;-66
2021/05/02 06:57:06;;;;;;;11.40;10.20;;;8.50;99.90;;;;;;5034037;28;20160;-66
2021/05/02 06:59:31;;;;;;;11.50;9.70;;;8.70;99.90;;;;;;5034110;28;20248;-67
2021/05/02 07:01:57;;;;;;;11.27;9.97;;;8.80;99.90;;;;;;5034409;28;20174;-66
2021/05/02 07:04:22;;;;;;;12.20;9.03;;;8.90;99.90;;;;;;5034260;28;20241;-66
2021/05/02 07:06:48;;;;;;;11.07;9.70;;;9.10;99.90;;;;;;5053117;28;20178;-66
2021/05/02 07:09:14;;;;;;;8.23;7.43;;;9.20;99.90;;;;;;5053839;28;20608;-66
2021/05/02 07:11:39;;;;;;;10.87;8.90;;;9.40;99.90;;;;;;5053514;28;20164;-66
2021/05/02 07:14:05;;;;;;;9.60;7.90;;;9.50;99.90;;;;;;5054275;28;20542;-66
2021/05/02 07:16:31;;;;;;;7.10;6.50;;;9.70;99.90;;;;;;5054024;28;20186;-66
2021/05/02 07:18:57;;;;;;;10.63;8.10;;;9.80;99.90;;;;;;5053423;28;20604;-66
2021/05/02 07:21:22;;;;;;;10.60;7.20;;;9.90;99.90;;;;;;5040974;28;20447;-66
2021/05/02 07:23:52;;;;;;;8.23;7.40;;;10.10;99.90;;;;;;5033490;28;20157;-67
2021/05/02 07:26:19;;;;;;;8.60;7.70;;;10.20;99.90;;;;;;5033261;28;20888;-66
2021/05/02 07:28:45;;;;;;;9.40;7.27;;;10.40;99.90;;;;;;5033849;28;20393;-66
2021/05/02 07:31:12;;;;;;;10.50;7.67;;;10.50;99.90;;;;;;5033847;28;20392;-66
2021/05/02 07:33:39;;;;;;;9.07;7.13;;;10.50;99.90;;;;;;5033258;28;20395;-67
2021/05/02 07:36:05;;;;;;;7.80;7.00;;;10.50;99.90;;;;;;5039410;28;20400;-67
2021/05/02 07:38:31;;;;;;;9.87;6.80;;;10.50;99.90;;;;;;5039397;28;20902;-66
2021/05/02 07:40:57;;;;;;;13.20;7.30;;;10.60;99.90;;;;;;5033153;28;20542;-66
2021/05/02 07:43:23;;;;;;;7.07;5.70;;;10.80;99.90;;;;;;5034182;28;20402;-67
2021/05/02 07:45:48;;;;;;;6.10;5.50;;;11.10;99.90;;;;;;5033882;28;20403;-66
2021/05/02 07:48:15;;;;;;;6.67;4.90;;;11.70;99.90;;;;;;5033043;28;20158;-66
2021/05/02 07:50:41;;;;;;;8.63;5.00;;;12.40;98.30;;;;;;5033016;28;20164;-66
2021/05/02 07:53:06;;;;;;;7.97;4.90;;;13.40;94.40;;;;;;5032992;28;20391;-66
2021/05/02 07:55:33;;;;;;;7.20;5.07;;;14.50;85.80;;;;;;5033553;28;20411;-66
2021/05/02 07:57:59;;;;;;;5.47;4.87;;;15.00;78.40;;;;;;5033419;28;20159;-67
2021/05/02 08:00:25;;;;;;;5.67;3.60;;;15.10;75.20;;;;;;5032994;28;20463;-66
2021/05/02 08:02:51;;;;;;;5.17;3.00;;;14.90;72.60;;;;;;5031967;28;20809;-66
2021/05/02 08:05:17;;;;;;;3.77;3.30;;;14.50;70.10;;;;;;5032937;28;20427;-66
2021/05/02 08:07:43;;;;;;;3.97;2.80;;;14.40;69.40;;;;;;5041715;28;20178;-66
2021/05/02 08:10:10;;;;;;;7.47;2.90;;;14.30;70.40;;;;;;5051379;28;20169;-66
2021/05/02 08:12:35;;;;;;;4.20;2.60;;;14.60;69.70;;;;;;5039564;28;20787;-67
2021/05/02 08:15:01;;;;;;;7.40;2.70;;;15.40;66.60;;;;;;5033378;28;20399;-66
2021/05/02 08:17:27;;;;;;;11.53;2.80;;;16.30;62.30;;;;;;5031713;28;20157;-66
2021/05/02 08:19:52;;;;;;;4.17;3.50;;;17.00;58.20;;;;;;5032716;28;20196;-67
2021/05/02 08:22:18;;;;;;;4.33;3.10;;;17.10;57.60;;;;;;5032745;28;20161;-66
2021/05/02 08:24:44;;;;;;;5.43;4.27;;;17.40;57.00;;;;;;5032732;28;20180;-66
2021/05/02 08:27:10;;;;;;;4.17;3.67;;;18.30;55.60;;;;;;5033241;28;20392;-66
2021/05/02 08:29:35;;;;;;;4.47;4.07;;;19.30;51.80;;;;;;5033370;28;20182;-66
2021/05/02 08:32:01;;;;;;;5.80;3.50;;;19.30;50.20;;;;;;5032710;28;20157;-66
2021/05/02 08:34:26;;;;;;;4.33;3.93;;;18.60;50.00;;;;;;5032637;28;20157;-66
2021/05/02 08:36:52;;;;;;;5.93;5.00;;;17.80;51.40;;;;;;5032636;28;20212;-66
2021/05/02 08:39:17;;;;;;;6.40;4.43;;;16.90;52.70;;;;;;5050397;28;20213;-66
2021/05/02 08:41:43;;;;;;;9.23;5.53;;;15.90;54.00;;;;;;5053409;28;20255;-67
2021/05/02 08:44:08;;;;;;;7.80;4.43;;;15.10;55.70;;;;;;5052636;28;20558;-66
2021/05/02 08:46:35;;;;;;;4.93;4.53;;;14.60;57.60;;;;;;5039150;28;20546;-66
2021/05/02 08:49:02;;;;;;;5.50;4.17;;;15.10;58.10;;;;;;5036259;28;20161;-66
2021/05/02 08:51:28;;;;;;;8.10;4.07;;;16.50;55.80;;;;;;5036222;28;21131;-66
2021/05/02 08:53:55;;;;;;;5.00;3.63;;;17.60;53.20;;;;;;5036443;28;20407;-66
2021/05/02 08:56:20;;;;;;;7.40;4.07;;;17.80;50.90;;;;;;5036661;28;20277;-67
2021/05/02 08:58:46;;;;;;;5.00;3.80;;;18.30;50.10;;;;;;5036177;28;20843;-66
2021/05/02 09:01:11;;;;;;;6.40;4.27;;;18.40;49.10;;;;;;5035956;28;20295;-66
2021/05/02 09:03:46;;;;;;;6.23;3.80;;;18.40;49.40;;;;;;5036620;28;20700;-66
2021/05/02 09:06:17;;;;;;;5.50;3.07;;;18.60;49.50;;;;;;5036020;28;20160;-67
2021/05/02 09:08:43;;;;;;;5.03;3.50;;;19.30;48.50;;;;;;5053172;28;20414;-67
2021/05/02 09:11:09;;;;;;;3.57;3.27;;;20.10;46.50;;;;;;5056544;28;20406;-67
2021/05/02 09:13:44;;;;;;;7.30;3.17;;;20.30;45.60;;;;;;5055939;28;20487;-67
2021/05/02 09:16:10;;;;;;;3.33;2.70;;;20.20;43.90;;;;;;5054441;28;20187;-67
2021/05/02 09:21:28;;;;;;;4.90;2.80;;;19.70;42.20;;;;;;5111842;27;20508;-67
2021/05/02 09:23:54;;;;;;;3.00;2.53;;;17.90;45.50;;;;;;5111167;28;20456;-67
2021/05/02 09:26:23;;;;;;;7.20;3.27;;;17.10;46.70;;;;;;5111685;28;20836;-66
2021/05/02 09:28:53;;;;;;;3.93;2.53;;;16.30;47.70;;;;;;5110898;28;20379;-67
2021/05/02 09:31:26;;;;;;;7.80;3.60;;;15.70;49.50;;;;;;5110881;28;20869;-67
2021/05/02 09:33:52;;;;;;;3.73;2.60;;;15.70;50.60;;;;;;5110936;28;20453;-67
2021/05/02 09:36:20;;;;;;;5.77;2.53;;;15.90;50.40;;;;;;5110699;28;20832;-66
2021/05/02 09:38:46;;;;;;;3.23;2.57;;;16.00;49.90;;;;;;5110835;28;20388;-67
2021/05/02 09:41:14;;;;;;;3.77;3.43;;;15.80;50.00;;;;;;5111222;28;20811;-66
2021/05/02 09:43:48;;;;;;;5.53;2.93;;;15.40;51.50;;;;;;5110515;28;20389;-67
2021/05/02 09:49:12;;;;;;;6.33;3.03;;;15.00;52.50;;;;;;5110948;27;20517;-67
2021/05/02 09:51:43;;;;;;;4.47;2.67;;;14.40;54.90;;;;;;5110840;28;20402;-67
2021/05/02 09:54:13;;;;;;;3.43;3.10;;;14.20;56.10;;;;;;5101005;28;20516;-67
2021/05/02 09:59:34;;;;;;;4.77;3.10;;;14.60;57.30;;;;;;5111036;27;20568;-67
2021/05/02 10:04:49;;;;;;;3.50;3.20;;;15.20;56.20;;;;;;5090596;28;20851;-66
2021/05/02 10:07:17;;;;;;;5.20;3.40;;;15.30;54.80;;;;;;5090744;28;20479;-66
2021/05/02 10:09:43;;;;;;;3.77;2.70;;;15.10;54.60;;;;;;5091528;28;20493;-66
2021/05/02 10:12:10;;;;;;;3.67;2.50;;;15.00;53.00;;;;;;5089658;28;20393;-66
2021/05/02 10:14:37;;;;;;;3.93;2.57;;;14.70;52.40;;;;;;5090397;28;20386;-66
2021/05/02 10:17:03;;;;;;;4.10;3.00;;;14.40;53.00;;;;;;5090413;28;20388;-67
2021/05/02 10:19:29;;;;;;;5.73;3.13;;;14.10;54.00;;;;;;5090588;28;20389;-66
2021/05/02 10:21:55;;;;;;;4.40;2.70;;;13.90;54.40;;;;;;5090208;28;20400;-66
2021/05/02 10:24:22;;;;;;;2.60;2.40;;;13.70;54.40;;;;;;5072931;28;20268;-67
2021/05/02 10:26:51;;;;;;;3.17;2.77;;;13.60;54.70;;;;;;5090317;28;20386;-66
2021/05/02 10:29:27;;;;;;;5.47;3.07;;;13.60;54.70;;;;;;5089565;28;20421;-66
2021/05/02 10:32:03;;;;;;;4.13;2.70;;;13.70;54.60;;;;;;5090083;28;20389;-66
2021/05/02 10:37:27;;;;;;;6.80;2.97;;;13.90;54.80;;;;;;5131795;27;20515;-67
2021/05/02 10:42:53;;;;;;;3.90;2.30;;;14.40;52.50;;;;;;5110933;27;20513;-67
2021/05/02 10:48:37;;;;;;;3.80;2.77;;;14.50;51.00;;;;;;5131532;27;20921;-67
2021/05/02 10:51:22;;;;;;;4.17;2.87;;;14.20;51.30;;;;;;5131717;28;20424;-67
2021/05/02 10:54:06;;;;;;;4.27;2.23;;;14.00;51.80;;;;;;5131696;28;20402;-67
2021/05/02 10:59:29;;;;;;;3.97;2.90;;;14.00;52.80;;;;;;5131466;27;21096;-67
2021/05/02 11:01:54;;;;;;;4.30;2.50;;;14.20;52.70;;;;;;5121294;28;20487;-67
2021/05/02 11:04:21;;;;;;;4.40;3.00;;;14.40;51.50;;;;;;5111523;28;20479;-67
2021/05/02 11:06:52;;;;;;;5.07;2.30;;;14.40;50.30;;;;;;5111758;28;20556;-67
2021/05/02 11:09:18;;;;;;;3.90;2.27;;;14.40;50.20;;;;;;5110739;28;20380;-67
2021/05/02 11:11:47;;;;;;;3.33;2.40;;;14.30;50.50;;;;;;5110733;28;20384;-67
2021/05/02 11:19:40;;;;;;;2.67;2.47;;;14.30;50.70;;;;;;5097103;27;20508;-67
2021/05/02 11:22:08;;;;;;;5.80;2.30;;;14.10;50.80;;;;;;5091125;28;20413;-67
2021/05/02 11:27:36;;;;;;;2.27;2.00;;;14.10;50.80;;;;;;5131481;27;20561;-67
2021/05/02 11:32:40;;;;;;;4.83;2.30;;;14.00;50.60;;;;;;5131325;27;21092;-66
2021/05/02 11:35:11;;;;;;;3.53;1.97;;;14.20;48.80;;;;;;5130205;28;20466;-66
2021/05/02 11:43:25;;;;;;;2.60;1.87;;;13.90;49.10;;;;;;5110974;27;20501;-67
2021/05/02 11:51:06;;;;;;;5.13;2.60;;;14.00;49.70;;;;;;5111726;27;20555;-67
2021/05/02 11:53:42;;;;;;;2.70;2.40;;;14.10;49.10;;;;;;5096864;28;20409;-67
2021/05/02 11:58:48;;;;;;;5.30;1.77;;;14.30;48.90;;;;;;5090499;28;20564;-67
2021/05/02 12:01:18;;;;;;;2.40;1.77;;;14.40;48.00;;;;;;5090606;28;20378;-67
2021/05/02 12:03:45;;;;;;;2.70;1.90;;;14.40;48.40;;;;;;5091056;28;20386;-67
2021/05/02 12:06:20;;;;;;;2.33;2.13;;;14.40;47.90;;;;;;5090889;28;20740;-67
2021/05/02 12:08:46;;;;;;;2.70;2.50;;;14.30;48.20;;;;;;5089247;28;20388;-67
2021/05/02 12:11:13;;;;;;;2.50;1.93;;;14.20;47.50;;;;;;5070713;28;20981;-67
2021/05/02 12:13:40;;;;;;;1.90;1.80;;;14.10;47.70;;;;;;5070057;28;20383;-67
2021/05/02 12:16:13;;;;;;;1.60;1.40;;;14.00;47.60;;;;;;5069991;28;20417;-67
2021/05/02 12:18:49;;;;;;;1.93;1.50;;;13.90;48.00;;;;;;5070775;28;20532;-67
2021/05/02 12:29:28;;;;;;;3.97;2.13;;;14.10;48.70;;;;;;5131665;27;20551;-67
2021/05/02 12:34:41;;;;;;;4.13;2.20;;;14.30;48.60;;;;;;5111611;27;20546;-66
2021/05/02 12:39:47;;;;;;;2.40;2.20;;;14.20;49.10;;;;;;5110930;27;20505;-67
2021/05/02 12:42:13;;;;;;;2.67;2.30;;;14.10;48.90;;;;;;5110890;28;20757;-67
2021/05/02 12:44:40;;;;;;;6.00;2.63;;;14.00;48.90;;;;;;5095851;28;20401;-67
2021/05/02 12:47:23;;;;;;;2.93;2.30;;;14.00;49.20;;;;;;5090698;28;20200;-67
2021/05/02 12:49:53;;;;;;;3.80;2.17;;;13.90;49.60;;;;;;5090969;28;20384;-67
2021/05/02 12:52:19;;;;;;;3.00;1.80;;;14.00;50.10;;;;;;5089217;28;20897;-67
2021/05/02 12:54:45;;;;;;;2.17;1.97;;;14.10;50.00;;;;;;5090275;28;20480;-67
2021/05/02 12:57:14;;;;;;;2.30;2.00;;;14.20;49.40;;;;;;5090622;28;20159;-67
2021/05/02 13:02:29;;;;;;;7.30;2.37;;;14.30;49.40;;;;;;5111618;27;20536;-67
2021/05/02 13:05:00;;;;;;;3.33;2.40;;;14.40;49.20;;;;;;5111012;28;20391;-67
2021/05/02 13:07:34;;;;;;;5.33;2.37;;;14.50;48.90;;;;;;5110811;28;20465;-67
2021/05/02 13:10:04;;;;;;;4.20;1.90;;;14.60;49.00;;;;;;5111122;28;20384;-67
2021/05/02 13:18:14;;;;;;;2.27;2.07;;;14.80;47.90;;;;;;5122826;27;20558;-67
2021/05/02 13:21:01;;;;;;;1.83;1.60;;;14.80;47.40;;;;;;5110990;28;20381;-67
2021/05/02 13:26:11;;;;;;;4.60;1.83;;;14.70;47.60;;;;;;5131522;27;20926;-67
2021/05/02 13:28:39;;;;;;;3.53;2.30;;;14.40;47.50;;;;;;5131409;28;20803;-67
2021/05/02 13:31:06;;;;;;;3.00;1.63;;;14.40;48.10;;;;;;5131853;28;20387;-67
2021/05/02 13:33:32;;;;;;;2.73;2.10;;;14.30;48.20;;;;;;5130422;28;20833;-67
2021/05/02 13:35:58;;;;;;;2.87;2.67;;;14.20;48.80;;;;;;5113067;28;20415;-67
2021/05/02 13:38:23;;;;;;;3.20;2.33;;;14.00;49.10;;;;;;5110719;28;20524;-67
2021/05/02 13:40:49;;;;;;;2.50;2.13;;;13.90;49.70;;;;;;5110767;28;20177;-67
2021/05/02 13:43:15;;;;;;;4.30;2.50;;;13.80;49.80;;;;;;5122027;28;20165;-67
2021/05/02 13:45:41;;;;;;;3.00;2.70;;;13.60;49.70;;;;;;5131604;28;20860;-67
2021/05/02 13:48:08;;;;;;;2.97;2.40;;;13.40;51.00;;;;;;5131211;28;20391;-67
2021/05/02 13:50:34;;;;;;;4.73;3.00;;;13.20;52.90;;;;;;5131038;28;20434;-67
2021/05/02 13:53:01;;;;;;;7.57;3.70;;;13.10;56.50;;;;;;5112944;27;20493;-67
2021/05/02 13:55:26;;;;;;;4.93;4.53;;;12.90;61.10;;;;;;5110395;28;20162;-67
2021/05/02 13:57:52;;;;;;;5.80;4.80;;;12.70;69.50;;;;;;5110299;28;20411;-67
2021/05/02 14:00:18;;;;;;;4.97;4.57;;;12.50;75.40;;;;;;5111327;28;20196;-67
2021/05/02 14:02:46;;;;;;;4.90;4.50;;;12.10;78.40;;;;;;5110538;28;20607;-67
2021/05/02 14:05:14;;;;;;;6.50;5.43;;;11.90;87.00;;;;;;5110191;28;20278;-67
2021/05/02 14:07:40;;;;;;;5.30;4.80;;;11.70;91.80;;;;;;5109960;28;20398;-67
2021/05/02 14:10:09;;;;;;;5.23;4.73;;;11.50;95.60;;;;;;5110702;28;20406;-67
2021/05/02 14:12:35;;;;;;;5.63;4.30;;;11.40;96.40;;;;;;5109952;28;20251;-67